createdAt,value
2019-04-28T00:00:24.663Z,992.23
2019-04-28T00:01:24.865Z,992.25
2019-04-28T00:02:25.071Z,992.26
2019-04-28T00:03:25.275Z,992.23
2019-04-28T00:04:25.429Z,992.19
2019-04-28T00:05:25.496Z,992.22
2019-04-28T00:06:25.710Z,992.24
2019-04-28T00:07:25.939Z,992.20
2019-04-28T00:08:26.014Z,992.24
2019-04-28T00:09:26.256Z,992.25
2019-04-28T00:10:26.363Z,992.21
2019-04-28T00:11:26.446Z,992.18
2019-04-28T00:12:26.637Z,992.25
2019-04-28T00:13:26.822Z,992.19
2019-04-28T00:14:27.004Z,992.20
2019-04-28T00:15:27.213Z,992.18
2019-04-28T00:16:27.416Z,992.21
2019-04-28T00:17:27.640Z,992.21
2019-04-28T00:18:27.705Z,992.18
2019-04-28T00:19:27.931Z,992.19
2019-04-28T00:20:28.019Z,992.19
2019-04-28T00:21:28.208Z,992.21
2019-04-28T00:22:28.414Z,992.19
2019-04-28T00:23:28.612Z,992.19
2019-04-28T00:24:28.805Z,992.21
2019-04-28T00:25:29.023Z,992.21
2019-04-28T00:26:30.987Z,992.25
2019-04-28T00:27:29.392Z,992.22
2019-04-28T00:28:31.155Z,992.29
2019-04-28T00:29:38.583Z,992.25
2019-04-28T00:30:31.619Z,992.28
2019-04-28T00:31:31.578Z,992.25
2019-04-28T00:32:34.817Z,992.27
2019-04-28T00:33:34.133Z,992.26
2019-04-28T00:34:34.077Z,992.26
2019-04-28T00:35:35.238Z,992.27
2019-04-28T00:36:35.042Z,992.24
2019-04-28T00:37:35.455Z,992.23
2019-04-28T00:38:34.180Z,992.23
2019-04-28T00:39:31.848Z,992.23
2019-04-28T00:40:31.722Z,992.22
2019-04-28T00:41:31.737Z,992.23
2019-04-28T00:42:31.815Z,992.27
2019-04-28T00:43:32.019Z,992.24
2019-04-28T00:44:32.222Z,992.23
2019-04-28T00:45:32.404Z,992.24
2019-04-28T00:46:32.601Z,992.28
2019-04-28T00:47:32.827Z,992.27
2019-04-28T00:48:33.018Z,992.24
2019-04-28T00:49:33.241Z,992.28
2019-04-28T00:50:33.459Z,992.29
2019-04-28T00:51:33.660Z,992.32
2019-04-28T00:52:33.885Z,992.29
2019-04-28T00:53:33.975Z,992.26
2019-04-28T00:54:34.204Z,992.30
2019-04-28T00:55:34.392Z,992.32
2019-04-28T00:56:34.593Z,992.29
2019-04-28T00:57:34.797Z,992.30
2019-04-28T00:58:34.999Z,992.31
2019-04-28T00:59:35.110Z,992.29
2019-04-28T01:00:35.307Z,992.32
2019-04-28T01:01:35.512Z,992.29
2019-04-28T01:02:35.702Z,992.28
2019-04-28T01:03:35.899Z,992.27
2019-04-28T01:04:36.149Z,992.26
2019-04-28T01:05:36.213Z,992.30
2019-04-28T01:06:36.418Z,992.29
2019-04-28T01:07:36.632Z,992.28
2019-04-28T01:08:36.901Z,992.22
2019-04-28T01:09:37.089Z,992.26
2019-04-28T01:10:37.179Z,992.25
2019-04-28T01:11:37.373Z,992.24
2019-04-28T01:12:37.621Z,992.24
2019-04-28T01:13:37.710Z,992.23
2019-04-28T01:14:37.911Z,992.23
2019-04-28T01:15:39.642Z,992.20
2019-04-28T01:16:40.021Z,992.25
2019-04-28T01:17:39.769Z,992.22
2019-04-28T01:18:40.347Z,992.22
2019-04-28T01:19:39.854Z,992.24
2019-04-28T01:20:39.649Z,992.20
2019-04-28T01:21:41.587Z,992.24
2019-04-28T01:22:40.139Z,992.24
2019-04-28T01:23:40.242Z,992.24
2019-04-28T01:24:39.932Z,992.22
2019-04-28T01:25:40.179Z,992.22
2019-04-28T01:26:41.665Z,992.22
2019-04-28T01:27:40.380Z,992.21
2019-04-28T01:28:40.431Z,992.21
2019-04-28T01:29:40.635Z,992.19
2019-04-28T01:30:40.828Z,992.26
2019-04-28T01:31:41.017Z,992.19
2019-04-28T01:32:41.232Z,992.23
2019-04-28T01:33:41.424Z,992.22
2019-04-28T01:34:41.638Z,992.23
2019-04-28T01:35:41.875Z,992.25
2019-04-28T01:36:41.975Z,992.26
2019-04-28T01:37:42.168Z,992.26
2019-04-28T01:38:42.403Z,992.28
2019-04-28T01:39:42.487Z,992.29
2019-04-28T01:40:42.746Z,992.31
2019-04-28T01:41:42.813Z,992.31
2019-04-28T01:42:43.015Z,992.34
2019-04-28T01:43:43.215Z,992.31
2019-04-28T01:44:43.424Z,992.30
2019-04-28T01:45:43.667Z,992.34
2019-04-28T01:46:43.790Z,992.38
2019-04-28T01:47:43.919Z,992.35
2019-04-28T01:48:44.011Z,992.37
2019-04-28T01:49:44.104Z,992.39
2019-04-28T01:50:44.303Z,992.42
2019-04-28T01:51:44.499Z,992.43
2019-04-28T01:52:44.706Z,992.42
2019-04-28T01:53:44.903Z,992.43
2019-04-28T01:54:45.144Z,992.43
2019-04-28T01:55:45.225Z,992.46
2019-04-28T01:56:45.429Z,992.44
2019-04-28T01:57:45.624Z,992.45
2019-04-28T01:58:45.838Z,992.41
2019-04-28T01:59:46.057Z,992.43
2019-04-28T02:00:46.266Z,992.44
2019-04-28T02:01:46.504Z,992.45
2019-04-28T02:02:46.720Z,992.45
2019-04-28T02:03:46.835Z,992.44
2019-04-28T02:04:46.925Z,992.47
2019-04-28T02:05:47.113Z,992.51
2019-04-28T02:06:47.333Z,992.52
2019-04-28T02:07:47.529Z,992.53
2019-04-28T02:08:51.112Z,992.52
2019-04-28T02:09:49.471Z,992.55
2019-04-28T02:10:50.004Z,992.57
2019-04-28T02:11:49.784Z,992.54
2019-04-28T02:12:50.206Z,992.59
2019-04-28T02:13:49.690Z,992.57
2019-04-28T02:14:49.963Z,992.59
2019-04-28T02:15:50.036Z,992.58
2019-04-28T02:16:50.398Z,992.61
2019-04-28T02:17:51.355Z,992.58
2019-04-28T02:18:49.735Z,992.61
2019-04-28T02:19:51.177Z,992.63
2019-04-28T02:20:51.172Z,992.64
2019-04-28T02:21:49.970Z,992.65
2019-04-28T02:22:50.124Z,992.65
2019-04-28T02:23:51.434Z,992.67
2019-04-28T02:24:50.556Z,992.66
2019-04-28T02:25:50.605Z,992.67
2019-04-28T02:26:52.710Z,992.70
2019-04-28T02:27:51.010Z,992.71
2019-04-28T02:28:51.201Z,992.71
2019-04-28T02:29:51.303Z,992.67
2019-04-28T02:30:53.846Z,992.69
2019-04-28T02:31:51.751Z,992.70
2019-04-28T02:32:52.050Z,992.65
2019-04-28T02:33:53.914Z,992.68
2019-04-28T02:34:52.232Z,992.68
2019-04-28T02:35:52.339Z,992.65
2019-04-28T02:36:53.845Z,992.67
2019-04-28T02:37:52.723Z,992.68
2019-04-28T02:38:52.934Z,992.66
2019-04-28T02:39:53.178Z,992.69
2019-04-28T02:40:53.292Z,992.65
2019-04-28T02:41:53.368Z,992.69
2019-04-28T02:42:53.587Z,992.64
2019-04-28T02:43:53.787Z,992.68
2019-04-28T02:44:54.016Z,992.63
2019-04-28T02:45:54.095Z,992.63
2019-04-28T02:46:54.298Z,992.69
2019-04-28T02:47:54.528Z,992.69
2019-04-28T02:48:54.595Z,992.66
2019-04-28T02:49:54.797Z,992.62
2019-04-28T02:50:54.993Z,992.69
2019-04-28T02:51:55.178Z,992.67
2019-04-28T02:52:55.418Z,992.70
2019-04-28T02:53:55.495Z,992.70
2019-04-28T02:54:55.686Z,992.70
2019-04-28T02:55:55.877Z,992.71
2019-04-28T02:56:56.061Z,992.72
2019-04-28T02:57:56.266Z,992.72
2019-04-28T02:58:56.515Z,992.76
2019-04-28T02:59:56.738Z,992.72
2019-04-28T03:01:06.744Z,992.73
2019-04-28T03:01:56.993Z,992.71
2019-04-28T03:02:57.197Z,992.72
2019-04-28T03:03:57.424Z,992.73
2019-04-28T03:05:00.107Z,992.73
2019-04-28T03:05:57.710Z,992.71
2019-04-28T03:06:57.944Z,992.71
2019-04-28T03:07:58.031Z,992.72
2019-04-28T03:09:00.299Z,992.75
2019-04-28T03:10:03.094Z,992.70
2019-04-28T03:11:00.859Z,992.69
2019-04-28T03:12:01.188Z,992.69
2019-04-28T03:13:01.185Z,992.71
2019-04-28T03:14:01.015Z,992.69
2019-04-28T03:15:00.514Z,992.68
2019-04-28T03:16:01.475Z,992.71
2019-04-28T03:17:00.861Z,992.72
2019-04-28T03:18:01.925Z,992.72
2019-04-28T03:19:01.241Z,992.71
2019-04-28T03:20:00.972Z,992.75
2019-04-28T03:21:01.718Z,992.74
2019-04-28T03:22:01.289Z,992.76
2019-04-28T03:23:01.033Z,992.76
2019-04-28T03:24:01.340Z,992.76
2019-04-28T03:25:01.080Z,992.77
2019-04-28T03:26:01.502Z,992.78
2019-04-28T03:27:03.654Z,992.82
2019-04-28T03:28:01.536Z,992.82
2019-04-28T03:29:01.604Z,992.82
2019-04-28T03:30:01.832Z,992.82
2019-04-28T03:31:06.615Z,992.83
2019-04-28T03:32:22.074Z,992.84
2019-04-28T03:33:10.743Z,992.82
2019-04-28T03:34:04.022Z,992.81
2019-04-28T03:35:03.776Z,992.85
2019-04-28T03:36:07.937Z,992.84
2019-04-28T03:37:02.980Z,992.83
2019-04-28T03:38:03.189Z,992.85
2019-04-28T03:39:03.403Z,992.85
2019-04-28T03:40:03.620Z,992.86
2019-04-28T03:41:03.814Z,992.86
2019-04-28T03:42:03.995Z,992.88
2019-04-28T03:43:04.193Z,992.85
2019-04-28T03:44:04.408Z,992.81
2019-04-28T03:45:04.597Z,992.84
2019-04-28T03:46:04.794Z,992.85
2019-04-28T03:47:04.991Z,992.83
2019-04-28T03:48:05.233Z,992.79
2019-04-28T03:49:05.422Z,992.82
2019-04-28T03:50:05.647Z,992.84
2019-04-28T03:51:05.838Z,992.85
2019-04-28T03:52:05.958Z,992.86
2019-04-28T03:53:06.155Z,992.84
2019-04-28T03:54:06.358Z,992.84
2019-04-28T03:55:06.557Z,992.85
2019-04-28T03:56:11.183Z,992.86
2019-04-28T03:57:11.676Z,992.86
2019-04-28T03:58:10.374Z,992.88
2019-04-28T03:59:10.482Z,992.86
2019-04-28T04:00:10.995Z,992.88
2019-04-28T04:01:10.848Z,992.86
2019-04-28T04:02:11.346Z,992.86
2019-04-28T04:03:10.648Z,992.87
2019-04-28T04:04:11.327Z,992.89
2019-04-28T04:05:10.890Z,992.85
2019-04-28T04:06:10.484Z,992.89
2019-04-28T04:07:10.881Z,992.88
2019-04-28T04:08:10.965Z,992.89
2019-04-28T04:09:11.091Z,992.89
2019-04-28T04:10:11.394Z,992.91
2019-04-28T04:11:10.897Z,992.91
2019-04-28T04:12:11.115Z,992.96
2019-04-28T04:13:10.917Z,992.95
2019-04-28T04:14:11.435Z,992.98
2019-04-28T04:15:11.274Z,993.01
2019-04-28T04:16:10.422Z,993.00
2019-04-28T04:17:11.412Z,993.02
2019-04-28T04:18:11.158Z,993.01
2019-04-28T04:19:10.757Z,993.04
2019-04-28T04:20:11.129Z,992.99
2019-04-28T04:21:11.336Z,993.03
2019-04-28T04:22:11.178Z,993.02
2019-04-28T04:23:11.581Z,993.01
2019-04-28T04:24:11.574Z,993.02
2019-04-28T04:25:12.675Z,993.02
2019-04-28T04:26:12.062Z,993.04
2019-04-28T04:27:12.200Z,993.03
2019-04-28T04:28:12.446Z,993.06
2019-04-28T04:29:12.502Z,993.02
2019-04-28T04:30:12.732Z,993.02
2019-04-28T04:31:12.793Z,993.01
2019-04-28T04:32:22.950Z,993.04
2019-04-28T04:33:13.108Z,993.04
2019-04-28T04:34:13.312Z,993.05
2019-04-28T04:35:13.506Z,993.04
2019-04-28T04:36:13.705Z,993.01
2019-04-28T04:37:13.921Z,993.08
2019-04-28T04:38:14.117Z,993.08
2019-04-28T04:39:20.575Z,993.06
2019-04-28T04:40:16.097Z,993.06
2019-04-28T04:41:15.823Z,993.09
2019-04-28T04:42:20.258Z,993.08
2019-04-28T04:43:16.367Z,993.14
2019-04-28T04:44:17.541Z,993.14
2019-04-28T04:45:16.231Z,993.12
2019-04-28T04:46:16.246Z,993.14
2019-04-28T04:47:17.339Z,993.13
2019-04-28T04:48:17.779Z,993.19
2019-04-28T04:49:21.219Z,993.20
2019-04-28T04:50:20.854Z,993.21
2019-04-28T04:51:17.298Z,993.23
2019-04-28T04:52:20.155Z,993.19
2019-04-28T04:53:16.427Z,993.22
2019-04-28T04:54:16.608Z,993.28
2019-04-28T04:55:16.856Z,993.28
2019-04-28T04:56:16.918Z,993.31
2019-04-28T04:57:17.132Z,993.34
2019-04-28T04:58:17.329Z,993.34
2019-04-28T04:59:17.552Z,993.35
2019-04-28T05:00:17.667Z,993.36
2019-04-28T05:01:17.807Z,993.36
2019-04-28T05:02:26.572Z,993.42
2019-04-28T05:03:21.015Z,993.37
2019-04-28T05:04:19.687Z,993.38
2019-04-28T05:05:19.992Z,993.37
2019-04-28T05:06:19.936Z,993.42
2019-04-28T05:07:19.665Z,993.40
2019-04-28T05:08:20.324Z,993.39
2019-04-28T05:09:19.621Z,993.43
2019-04-28T05:10:20.384Z,993.42
2019-04-28T05:11:20.041Z,993.41
2019-04-28T05:12:19.871Z,993.42
2019-04-28T05:13:20.140Z,993.43
2019-04-28T05:14:20.105Z,993.39
2019-04-28T05:15:20.432Z,993.43
2019-04-28T05:16:20.473Z,993.42
2019-04-28T05:17:20.658Z,993.44
2019-04-28T05:18:20.866Z,993.44
2019-04-28T05:19:21.106Z,993.45
2019-04-28T05:20:21.190Z,993.45
2019-04-28T05:21:21.577Z,993.45
2019-04-28T05:22:21.519Z,993.48
2019-04-28T05:23:21.739Z,993.49
2019-04-28T05:24:21.844Z,993.48
2019-04-28T05:25:24.521Z,993.48
2019-04-28T05:26:22.197Z,993.49
2019-04-28T05:27:25.644Z,993.55
2019-04-28T05:28:22.508Z,993.56
2019-04-28T05:29:26.860Z,993.58
2019-04-28T05:30:24.875Z,993.57
2019-04-28T05:31:24.422Z,993.57
2019-04-28T05:32:23.239Z,993.60
2019-04-28T05:33:30.246Z,993.62
2019-04-28T05:34:24.267Z,993.64
2019-04-28T05:35:25.064Z,993.63
2019-04-28T05:36:23.899Z,993.63
2019-04-28T05:37:24.145Z,993.65
2019-04-28T05:38:24.272Z,993.66
2019-04-28T05:39:24.348Z,993.63
2019-04-28T05:40:24.554Z,993.68
2019-04-28T05:41:24.747Z,993.65
2019-04-28T05:42:24.928Z,993.70
2019-04-28T05:43:25.058Z,993.70
2019-04-28T05:44:29.911Z,993.71
2019-04-28T05:45:27.858Z,993.72
2019-04-28T05:46:27.367Z,993.71
2019-04-28T05:47:26.263Z,993.73
2019-04-28T05:48:27.574Z,993.74
2019-04-28T05:49:27.390Z,993.79
2019-04-28T05:50:29.659Z,993.74
2019-04-28T05:51:29.903Z,993.78
2019-04-28T05:52:30.329Z,993.77
2019-04-28T05:53:26.761Z,993.76
2019-04-28T05:54:26.982Z,993.79
2019-04-28T05:55:27.179Z,993.84
2019-04-28T05:56:27.392Z,993.82
2019-04-28T05:57:27.591Z,993.83
2019-04-28T05:58:30.048Z,993.85
2019-04-28T05:59:29.969Z,993.85
2019-04-28T06:00:29.723Z,993.87
2019-04-28T06:01:31.939Z,993.88
2019-04-28T06:02:31.026Z,993.87
2019-04-28T06:03:30.209Z,993.88
2019-04-28T06:04:32.814Z,993.92
2019-04-28T06:05:31.935Z,993.92
2019-04-28T06:06:30.795Z,993.90
2019-04-28T06:07:31.702Z,993.88
2019-04-28T06:08:30.490Z,993.92
2019-04-28T06:09:29.665Z,993.91
2019-04-28T06:10:29.938Z,993.94
2019-04-28T06:11:30.664Z,993.93
2019-04-28T06:12:31.831Z,993.94
2019-04-28T06:13:30.356Z,993.89
2019-04-28T06:14:30.488Z,993.90
2019-04-28T06:15:30.735Z,993.91
2019-04-28T06:16:30.810Z,993.97
2019-04-28T06:17:31.039Z,993.95
2019-04-28T06:18:31.251Z,993.92
2019-04-28T06:19:31.478Z,993.91
2019-04-28T06:20:31.701Z,993.92
2019-04-28T06:21:31.891Z,993.97
2019-04-28T06:22:32.119Z,993.97
2019-04-28T06:23:32.182Z,993.98
2019-04-28T06:24:32.606Z,993.98
2019-04-28T06:25:32.551Z,994.01
2019-04-28T06:26:32.773Z,994.00
2019-04-28T06:27:32.937Z,993.97
2019-04-28T06:28:33.090Z,994.02
2019-04-28T06:29:33.317Z,994.05
2019-04-28T06:30:33.409Z,994.06
2019-04-28T06:31:35.249Z,994.05
2019-04-28T06:32:35.652Z,994.06
2019-04-28T06:33:36.316Z,994.02
2019-04-28T06:34:36.495Z,994.02
2019-04-28T06:35:35.501Z,994.00
2019-04-28T06:36:35.612Z,993.99
2019-04-28T06:37:35.159Z,994.00
2019-04-28T06:38:38.259Z,993.97
2019-04-28T06:39:34.790Z,993.96
2019-04-28T06:40:34.924Z,993.96
2019-04-28T06:41:35.159Z,993.99
2019-04-28T06:42:35.171Z,993.95
2019-04-28T06:43:35.443Z,993.99
2019-04-28T06:44:35.517Z,993.96
2019-04-28T06:45:35.631Z,993.96
2019-04-28T06:46:35.778Z,994.01
2019-04-28T06:47:35.877Z,993.99
2019-04-28T06:48:35.988Z,994.05
2019-04-28T06:49:36.108Z,994.00
2019-04-28T06:50:36.179Z,994.03
2019-04-28T06:51:36.388Z,994.00
2019-04-28T06:52:36.620Z,994.00
2019-04-28T06:53:36.766Z,994.08
2019-04-28T06:54:36.820Z,994.06
2019-04-28T06:55:37.035Z,994.01
2019-04-28T06:56:37.271Z,994.06
2019-04-28T06:57:37.391Z,994.10
2019-04-28T06:58:37.454Z,994.10
2019-04-28T06:59:38.048Z,994.13
2019-04-28T07:00:38.047Z,994.13
2019-04-28T07:01:38.079Z,994.14
2019-04-28T07:02:38.139Z,994.16
2019-04-28T07:03:38.405Z,994.12
2019-04-28T07:04:38.448Z,994.16
2019-04-28T07:05:38.747Z,994.19
2019-04-28T07:06:38.789Z,994.19
2019-04-28T07:07:38.920Z,994.24
2019-04-28T07:08:39.395Z,994.23
2019-04-28T07:09:39.183Z,994.18
2019-04-28T07:10:39.391Z,994.21
2019-04-28T07:11:39.444Z,994.25
2019-04-28T07:12:39.688Z,994.25
2019-04-28T07:13:39.862Z,994.25
2019-04-28T07:14:40.078Z,994.27
2019-04-28T07:15:40.360Z,994.26
2019-04-28T07:16:40.418Z,994.26
2019-04-28T07:17:40.627Z,994.24
2019-04-28T07:18:40.919Z,994.24
2019-04-28T07:19:41.041Z,994.24
2019-04-28T07:20:41.124Z,994.25
2019-04-28T07:21:41.322Z,994.24
2019-04-28T07:22:41.782Z,994.27
2019-04-28T07:23:41.737Z,994.28
2019-04-28T07:24:44.777Z,994.28
2019-04-28T07:25:42.362Z,994.26
2019-04-28T07:26:42.266Z,994.28
2019-04-28T07:27:43.137Z,994.30
2019-04-28T07:28:43.411Z,994.26
2019-04-28T07:29:43.476Z,994.33
2019-04-28T07:30:43.178Z,994.38
2019-04-28T07:31:43.325Z,994.36
2019-04-28T07:32:43.387Z,994.34
2019-04-28T07:33:43.769Z,994.37
2019-04-28T07:34:43.886Z,994.39
2019-04-28T07:35:43.868Z,994.40
2019-04-28T07:36:43.923Z,994.41
2019-04-28T07:37:44.127Z,994.40
2019-04-28T07:38:44.337Z,994.44
2019-04-28T07:39:44.544Z,994.46
2019-04-28T07:40:44.794Z,994.44
2019-04-28T07:41:44.932Z,994.46
2019-04-28T07:42:45.172Z,994.46
2019-04-28T07:43:45.259Z,994.48
2019-04-28T07:44:45.356Z,994.46
2019-04-28T07:45:45.589Z,994.49
2019-04-28T07:46:45.669Z,994.54
2019-04-28T07:47:45.878Z,994.52
2019-04-28T07:48:46.125Z,994.56
2019-04-28T07:49:46.193Z,994.61
2019-04-28T07:50:46.410Z,994.58
2019-04-28T07:51:46.891Z,994.60
2019-04-28T07:52:46.943Z,994.63
2019-04-28T07:53:46.807Z,994.61
2019-04-28T07:54:47.078Z,994.62
2019-04-28T07:55:47.355Z,994.66
2019-04-28T07:56:47.333Z,994.66
2019-04-28T07:57:47.693Z,994.65
2019-04-28T07:58:48.587Z,994.72
2019-04-28T07:59:47.959Z,994.70
2019-04-28T08:00:48.910Z,994.70
2019-04-28T08:01:48.152Z,994.68
2019-04-28T08:02:48.348Z,994.73
2019-04-28T08:03:50.092Z,994.75
2019-04-28T08:04:48.757Z,994.77
2019-04-28T08:05:48.829Z,994.75
2019-04-28T08:06:49.033Z,994.76
2019-04-28T08:07:49.240Z,994.81
2019-04-28T08:08:49.455Z,994.80
2019-04-28T08:09:49.710Z,994.84
2019-04-28T08:10:49.870Z,994.86
2019-04-28T08:11:50.139Z,994.85
2019-04-28T08:12:50.285Z,994.85
2019-04-28T08:13:50.448Z,994.88
2019-04-28T08:14:50.692Z,994.92
2019-04-28T08:15:50.754Z,994.93
2019-04-28T08:16:50.962Z,994.92
2019-04-28T08:17:51.145Z,994.91
2019-04-28T08:18:55.245Z,994.91
2019-04-28T08:19:51.816Z,994.88
2019-04-28T08:20:52.341Z,994.90
2019-04-28T08:21:51.914Z,994.91
2019-04-28T08:22:52.143Z,994.90
2019-04-28T08:23:52.407Z,994.93
2019-04-28T08:24:52.364Z,994.89
2019-04-28T08:25:52.489Z,994.92
2019-04-28T08:26:52.564Z,994.93
2019-04-28T08:27:52.881Z,994.92
2019-04-28T08:28:52.819Z,994.92
2019-04-28T08:29:58.600Z,994.92
2019-04-28T08:30:54.142Z,994.96
2019-04-28T08:31:53.462Z,994.98
2019-04-28T08:32:54.345Z,995.00
2019-04-28T08:34:02.152Z,994.99
2019-04-28T08:34:55.744Z,994.98
2019-04-28T08:35:54.323Z,994.96
2019-04-28T08:36:54.382Z,994.99
2019-04-28T08:37:55.356Z,995.02
2019-04-28T08:38:55.026Z,994.99
2019-04-28T08:39:54.873Z,995.02
2019-04-28T08:40:55.027Z,994.98
2019-04-28T08:41:55.043Z,995.01
2019-04-28T08:42:55.272Z,995.08
2019-04-28T08:43:55.481Z,995.01
2019-04-28T08:44:55.668Z,995.04
2019-04-28T08:45:55.960Z,995.02
2019-04-28T08:46:56.156Z,995.02
2019-04-28T08:47:58.010Z,995.01
2019-04-28T08:48:56.438Z,995.07
2019-04-28T08:49:56.632Z,995.06
2019-04-28T08:50:56.875Z,995.06
2019-04-28T08:51:56.983Z,995.08
2019-04-28T08:52:57.059Z,995.10
2019-04-28T08:53:57.335Z,995.12
2019-04-28T08:54:57.504Z,995.23
2019-04-28T08:55:57.596Z,995.30
2019-04-28T08:56:57.786Z,995.09
2019-04-28T08:57:58.002Z,995.09
2019-04-28T08:58:58.243Z,995.02
2019-04-28T08:59:58.377Z,995.27
2019-04-28T09:00:58.450Z,995.31
2019-04-28T09:01:58.657Z,995.35
2019-04-28T09:02:58.863Z,995.13
2019-04-28T09:03:59.078Z,995.16
2019-04-28T09:04:59.316Z,995.37
2019-04-28T09:06:01.446Z,995.40
2019-04-28T09:06:59.631Z,995.20
2019-04-28T09:07:59.834Z,995.28
2019-04-28T09:09:00.054Z,995.17
2019-04-28T09:10:00.287Z,995.29
2019-04-28T09:11:00.367Z,995.40
2019-04-28T09:12:00.487Z,995.35
2019-04-28T09:13:00.603Z,995.39
2019-04-28T09:14:00.891Z,995.36
2019-04-28T09:15:00.969Z,995.40
2019-04-28T09:16:01.181Z,995.41
2019-04-28T09:17:01.435Z,995.43
2019-04-28T09:18:01.854Z,995.38
2019-04-28T09:19:01.701Z,995.25
2019-04-28T09:20:01.832Z,995.26
2019-04-28T09:21:02.058Z,995.19
2019-04-28T09:22:02.252Z,995.24
2019-04-28T09:23:02.474Z,995.23
2019-04-28T09:24:02.746Z,995.21
2019-04-28T09:25:02.831Z,995.18
2019-04-28T09:26:03.056Z,995.21
2019-04-28T09:27:03.265Z,995.19
2019-04-28T09:28:03.624Z,995.16
2019-04-28T09:29:03.764Z,995.16
2019-04-28T09:30:03.892Z,995.17
2019-04-28T09:31:04.063Z,995.12
2019-04-28T09:32:04.261Z,995.11
2019-04-28T09:33:04.473Z,995.17
2019-04-28T09:34:04.584Z,995.25
2019-04-28T09:35:04.825Z,995.15
2019-04-28T09:36:04.903Z,995.14
2019-04-28T09:37:05.466Z,995.13
2019-04-28T09:38:05.749Z,995.08
2019-04-28T09:39:05.499Z,995.06
2019-04-28T09:40:05.709Z,995.05
2019-04-28T09:41:05.930Z,995.05
2019-04-28T09:42:06.168Z,995.05
2019-04-28T09:43:06.246Z,995.08
2019-04-28T09:44:06.474Z,995.10
2019-04-28T09:45:06.565Z,995.09
2019-04-28T09:46:06.779Z,995.07
2019-04-28T09:47:06.971Z,995.07
2019-04-28T09:48:07.282Z,995.05
2019-04-28T09:49:07.421Z,995.02
2019-04-28T09:50:07.645Z,995.05
2019-04-28T09:51:07.733Z,995.04
2019-04-28T09:52:08.207Z,995.04
2019-04-28T09:53:08.034Z,995.03
2019-04-28T09:54:08.266Z,995.06
2019-04-28T09:55:08.343Z,995.07
2019-04-28T09:56:08.556Z,995.02
2019-04-28T09:57:08.832Z,995.04
2019-04-28T09:58:08.961Z,995.04
2019-04-28T09:59:09.040Z,995.04
2019-04-28T10:00:09.286Z,995.02
2019-04-28T10:01:09.376Z,995.05
2019-04-28T10:02:09.582Z,995.01
2019-04-28T10:03:09.804Z,995.00
2019-04-28T10:04:09.994Z,995.07
2019-04-28T10:05:10.204Z,995.05
2019-04-28T10:06:10.295Z,995.08
2019-04-28T10:07:10.476Z,995.09
2019-04-28T10:08:10.734Z,995.12
2019-04-28T10:09:10.832Z,995.08
2019-04-28T10:10:11.198Z,995.14
2019-04-28T10:11:11.184Z,995.17
2019-04-28T10:12:11.293Z,995.15
2019-04-28T10:13:11.523Z,995.14
2019-04-28T10:14:11.733Z,995.16
2019-04-28T10:15:11.809Z,995.17
2019-04-28T10:16:12.014Z,995.13
2019-04-28T10:17:12.275Z,995.14
2019-04-28T10:18:12.377Z,995.11
2019-04-28T10:19:12.450Z,995.14
2019-04-28T10:20:12.668Z,995.17
2019-04-28T10:21:12.749Z,995.15
2019-04-28T10:22:12.879Z,995.22
2019-04-28T10:23:13.081Z,995.20
2019-04-28T10:24:13.316Z,995.18
2019-04-28T10:25:13.422Z,995.19
2019-04-28T10:26:13.614Z,995.16
2019-04-28T10:27:13.798Z,995.17
2019-04-28T10:28:14.031Z,995.14
2019-04-28T10:29:14.237Z,995.12
2019-04-28T10:30:14.465Z,995.12
2019-04-28T10:31:14.716Z,995.11
2019-04-28T10:32:14.794Z,995.11
2019-04-28T10:33:14.919Z,995.09
2019-04-28T10:34:15.143Z,995.15
2019-04-28T10:35:15.221Z,995.12
2019-04-28T10:36:15.425Z,995.12
2019-04-28T10:37:15.617Z,995.14
2019-04-28T10:38:15.817Z,995.12
2019-04-28T10:39:16.011Z,995.12
2019-04-28T10:40:16.227Z,995.12
2019-04-28T10:41:16.433Z,995.14
2019-04-28T10:42:16.633Z,995.14
2019-04-28T10:43:16.837Z,995.16
2019-04-28T10:44:17.033Z,995.16
2019-04-28T10:45:17.229Z,995.12
2019-04-28T10:46:17.418Z,995.11
2019-04-28T10:47:17.642Z,995.09
2019-04-28T10:48:17.716Z,995.10
2019-04-28T10:49:17.982Z,995.12
2019-04-28T10:50:18.039Z,995.06
2019-04-28T10:51:18.227Z,995.03
2019-04-28T10:52:18.426Z,995.05
2019-04-28T10:53:18.660Z,995.06
2019-04-28T10:54:18.729Z,995.07
2019-04-28T10:55:18.938Z,995.03
2019-04-28T10:56:19.192Z,995.08
2019-04-28T10:57:19.355Z,995.09
2019-04-28T10:58:19.503Z,995.07
2019-04-28T10:59:19.674Z,995.07
2019-04-28T11:00:20.013Z,995.09
2019-04-28T11:01:19.979Z,995.07
2019-04-28T11:02:20.209Z,995.10
2019-04-28T11:03:20.284Z,995.09
2019-04-28T11:04:20.532Z,995.10
2019-04-28T11:05:20.644Z,995.06
2019-04-28T11:06:20.743Z,995.06
2019-04-28T11:07:20.849Z,995.09
2019-04-28T11:08:20.970Z,995.08
2019-04-28T11:09:30.388Z,995.10
2019-04-28T11:10:21.296Z,995.10
2019-04-28T11:11:21.357Z,995.15
2019-04-28T11:12:21.605Z,995.15
2019-04-28T11:13:21.673Z,995.14
2019-04-28T11:14:21.910Z,995.17
2019-04-28T11:15:21.994Z,995.22
2019-04-28T11:16:22.183Z,995.19
2019-04-28T11:17:22.393Z,995.22
2019-04-28T11:18:22.486Z,995.18
2019-04-28T11:19:22.701Z,995.24
2019-04-28T11:20:25.251Z,995.25
2019-04-28T11:21:23.123Z,995.21
2019-04-28T11:22:23.345Z,995.24
2019-04-28T11:23:23.491Z,995.26
2019-04-28T11:24:23.562Z,995.20
2019-04-28T11:25:23.751Z,995.21
2019-04-28T11:26:23.967Z,995.22
2019-04-28T11:27:24.162Z,995.25
2019-04-28T11:28:24.380Z,995.27
2019-04-28T11:29:24.497Z,995.25
2019-04-28T11:30:24.670Z,995.23
2019-04-28T11:31:24.874Z,995.21
2019-04-28T11:32:25.087Z,995.20
2019-04-28T11:33:25.300Z,995.21
2019-04-28T11:34:25.531Z,995.20
2019-04-28T11:35:25.850Z,995.25
2019-04-28T11:36:25.831Z,995.23
2019-04-28T11:37:26.669Z,995.25
2019-04-28T11:38:26.070Z,995.25
2019-04-28T11:39:26.422Z,995.29
2019-04-28T11:40:26.485Z,995.29
2019-04-28T11:41:26.672Z,995.25
2019-04-28T11:42:26.825Z,995.21
2019-04-28T11:43:26.861Z,995.21
2019-04-28T11:44:27.129Z,995.21
2019-04-28T11:45:27.184Z,995.22
2019-04-28T11:46:27.390Z,995.20
2019-04-28T11:47:27.601Z,995.22
2019-04-28T11:48:27.801Z,995.23
2019-04-28T11:49:27.981Z,995.21
2019-04-28T11:50:28.179Z,995.26
2019-04-28T11:51:28.360Z,995.27
2019-04-28T11:52:28.601Z,995.28
2019-04-28T11:53:28.666Z,995.31
2019-04-28T11:54:28.921Z,995.28
2019-04-28T11:55:29.089Z,995.30
2019-04-28T11:56:40.800Z,995.27
2019-04-28T11:57:29.599Z,995.25
2019-04-28T11:58:29.540Z,995.25
2019-04-28T11:59:29.640Z,995.27
2019-04-28T12:00:29.829Z,995.23
2019-04-28T12:01:30.031Z,995.30
2019-04-28T12:02:30.244Z,995.26
2019-04-28T12:03:30.473Z,995.27
2019-04-28T12:04:30.555Z,995.24
2019-04-28T12:05:34.734Z,995.24
2019-04-28T12:06:30.949Z,995.24
2019-04-28T12:07:32.011Z,995.27
2019-04-28T12:08:31.323Z,995.22
2019-04-28T12:09:31.527Z,995.24
2019-04-28T12:10:31.734Z,995.29
2019-04-28T12:11:31.934Z,995.28
2019-04-28T12:12:32.128Z,995.30
2019-04-28T12:13:32.370Z,995.30
2019-04-28T12:14:32.498Z,995.32
2019-04-28T12:15:32.549Z,995.36
2019-04-28T12:16:32.741Z,995.36
2019-04-28T12:17:35.051Z,995.37
2019-04-28T12:18:33.081Z,995.35
2019-04-28T12:19:33.286Z,995.39
2019-04-28T12:20:33.474Z,995.49
2019-04-28T12:21:33.714Z,995.40
2019-04-28T12:22:33.891Z,995.46
2019-04-28T12:23:34.191Z,995.50
2019-04-28T12:24:34.300Z,995.47
2019-04-28T12:25:34.365Z,995.51
2019-04-28T12:26:34.554Z,995.46
2019-04-28T12:27:34.787Z,995.44
2019-04-28T12:28:34.889Z,995.37
2019-04-28T12:29:34.969Z,995.41
2019-04-28T12:30:35.186Z,995.41